sensor_id;sensor_type;location;lat;lon;timestamp;pressure;altitude;pressure_sealevel;temperature;humidity
13414;BME280;6778;48.136;11.386;2023-02-23T00:01:55;94978.22;;;8.79;74.45
13414;BME280;6778;48.136;11.386;2023-02-23T00:04:32;94984.41;;;8.84;74.39
13414;BME280;6778;48.136;11.386;2023-02-23T00:07:02;94975.78;;;8.84;74.40
13414;BME280;6778;48.136;11.386;2023-02-23T00:09:32;94975.56;;;8.85;74.40
13414;BME280;6778;48.136;11.386;2023-02-23T00:12:05;94979.41;;;8.83;74.72
13414;BME280;6778;48.136;11.386;2023-02-23T00:14:38;94979.41;;;8.83;74.85
13414;BME280;6778;48.136;11.386;2023-02-23T00:17:10;94979.19;;;8.84;74.87
13414;BME280;6778;48.136;11.386;2023-02-23T00:19:41;94985.66;;;8.82;74.76
13414;BME280;6778;48.136;11.386;2023-02-23T00:22:12;94974.97;;;8.83;74.88
13414;BME280;6778;48.136;11.386;2023-02-23T00:24:42;94978.38;;;8.84;74.93
13414;BME280;6778;48.136;11.386;2023-02-23T00:27:14;94985.78;;;8.87;74.90
13414;BME280;6778;48.136;11.386;2023-02-23T00:29:50;94979.19;;;8.84;75.22
13414;BME280;6778;48.136;11.386;2023-02-23T00:32:20;94976.56;;;8.84;75.52
13414;BME280;6778;48.136;11.386;2023-02-23T00:34:51;94977.38;;;8.85;75.45
13414;BME280;6778;48.136;11.386;2023-02-23T00:37:21;94982.59;;;8.85;75.40
13414;BME280;6778;48.136;11.386;2023-02-23T00:39:53;94980.19;;;8.83;75.86
13414;BME280;6778;48.136;11.386;2023-02-23T00:42:26;94976.78;;;8.83;75.85
13414;BME280;6778;48.136;11.386;2023-02-23T00:45:03;94977.59;;;8.83;76.30
13414;BME280;6778;48.136;11.386;2023-02-23T00:47:38;94986.22;;;8.84;76.13
13414;BME280;6778;48.136;11.386;2023-02-23T00:50:10;94979.97;;;8.85;76.22
13414;BME280;6778;48.136;11.386;2023-02-23T00:52:42;94976.56;;;8.84;76.32
13414;BME280;6778;48.136;11.386;2023-02-23T00:55:13;94978.56;;;8.89;76.26
13414;BME280;6778;48.136;11.386;2023-02-23T00:57:43;94980.56;;;8.87;76.39
13414;BME280;6778;48.136;11.386;2023-02-23T01:00:16;94977.94;;;8.87;76.42
13414;BME280;6778;48.136;11.386;2023-02-23T01:02:48;94982.53;;;8.91;76.33
13414;BME280;6778;48.136;11.386;2023-02-23T01:05:18;94975.72;;;8.90;76.50
13414;BME280;6778;48.136;11.386;2023-02-23T01:07:49;94983.34;;;8.92;76.40
13414;BME280;6778;48.136;11.386;2023-02-23T01:10:19;94985.94;;;8.92;76.44
13414;BME280;6778;48.136;11.386;2023-02-23T01:12:51;94976.09;;;8.94;76.42
13414;BME280;6778;48.136;11.386;2023-02-23T01:15:24;94981.53;;;8.92;76.36
13414;BME280;6778;48.136;11.386;2023-02-23T01:17:55;94987.34;;;8.94;76.49
13414;BME280;6778;48.136;11.386;2023-02-23T01:20:26;94976.25;;;8.99;76.04
13414;BME280;6778;48.136;11.386;2023-02-23T01:22:56;94975.66;;;8.97;76.32
13414;BME280;6778;48.136;11.386;2023-02-23T01:25:26;94974.28;;;8.94;76.39
13414;BME280;6778;48.136;11.386;2023-02-23T01:27:58;94973.69;;;8.92;76.54
13414;BME280;6778;48.136;11.386;2023-02-23T01:30:31;94968.69;;;8.91;76.56
13414;BME280;6778;48.136;11.386;2023-02-23T01:33:01;94975.28;;;8.93;76.48
13414;BME280;6778;48.136;11.386;2023-02-23T01:35:32;94985.38;;;8.90;76.61
13414;BME280;6778;48.136;11.386;2023-02-23T01:38:02;94982.50;;;8.98;76.55
13414;BME280;6778;48.136;11.386;2023-02-23T01:40:32;94982.50;;;8.98;76.24
13414;BME280;6778;48.136;11.386;2023-02-23T01:43:12;94982.72;;;8.96;76.67
13414;BME280;6778;48.136;11.386;2023-02-23T01:45:46;94980.31;;;8.95;76.68
13414;BME280;6778;48.136;11.386;2023-02-23T01:48:20;94982.50;;;8.98;76.55
13414;BME280;6778;48.136;11.386;2023-02-23T01:50:54;94981.13;;;8.95;76.31
13414;BME280;6778;48.136;11.386;2023-02-23T01:53:27;94990.91;;;9.00;76.38
13414;BME280;6778;48.136;11.386;2023-02-23T01:56:04;94987.50;;;8.99;76.20
13414;BME280;6778;48.136;11.386;2023-02-23T01:58:40;94975.66;;;8.97;76.20
13414;BME280;6778;48.136;11.386;2023-02-23T02:01:16;94982.50;;;8.98;76.45
13414;BME280;6778;48.136;11.386;2023-02-23T02:03:53;94978.69;;;8.94;76.51
13414;BME280;6778;48.136;11.386;2023-02-23T02:06:26;94972.88;;;8.92;76.62
13414;BME280;6778;48.136;11.386;2023-02-23T02:09:02;94967.88;;;8.90;76.77
13414;BME280;6778;48.136;11.386;2023-02-23T02:11:34;94966.28;;;8.89;76.78
13414;BME280;6778;48.136;11.386;2023-02-23T02:14:09;94962.50;;;8.85;77.11
13414;BME280;6778;48.136;11.386;2023-02-23T02:16:55;94964.09;;;8.86;77.34
13414;BME280;6778;48.136;11.386;2023-02-23T02:20:04;94957.72;;;8.82;77.67
13414;BME280;6778;48.136;11.386;2023-02-23T02:23:23;94950.09;;;8.81;77.63
13414;BME280;6778;48.136;11.386;2023-02-23T02:26:09;94951.88;;;8.80;77.69
13414;BME280;6778;48.136;11.386;2023-02-23T02:32:36;94948.69;;;8.78;77.57
13414;BME280;6778;48.136;11.386;2023-02-23T02:35:35;94952.38;;;8.70;77.89
13414;BME280;6778;48.136;11.386;2023-02-23T02:38:31;94952.59;;;8.69;78.01
13414;BME280;6778;48.136;11.386;2023-02-23T02:41:11;94950.28;;;8.79;77.60
13414;BME280;6778;48.136;11.386;2023-02-23T02:43:50;94944.50;;;8.77;77.51
13414;BME280;6778;48.136;11.386;2023-02-23T02:46:27;94948.47;;;8.80;77.39
13414;BME280;6778;48.136;11.386;2023-02-23T02:49:05;94944.34;;;8.72;77.94
13414;BME280;6778;48.136;11.386;2023-02-23T02:51:43;94956.00;;;8.69;77.98
13414;BME280;6778;48.136;11.386;2023-02-23T02:54:25;94954.03;;;8.65;78.28
13414;BME280;6778;48.136;11.386;2023-02-23T02:57:01;94953.25;;;8.64;78.22
13414;BME280;6778;48.136;11.386;2023-02-23T02:59:42;94956.28;;;8.61;78.47
13414;BME280;6778;48.136;11.386;2023-02-23T03:02:25;94952.09;;;8.60;78.51
13414;BME280;6778;48.136;11.386;2023-02-23T03:05:12;94955.09;;;8.57;78.74
13414;BME280;6778;48.136;11.386;2023-02-23T03:08:06;94947.44;;;8.62;78.22
13414;BME280;6778;48.136;11.386;2023-02-23T03:10:59;94952.66;;;8.62;78.39
13414;BME280;6778;48.136;11.386;2023-02-23T03:13:58;94951.25;;;8.60;78.35
13414;BME280;6778;48.136;11.386;2023-02-23T03:16:54;94950.31;;;8.54;78.71
13414;BME280;6778;48.136;11.386;2023-02-23T03:19:46;94962.19;;;8.50;78.89
13414;BME280;6778;48.136;11.386;2023-02-23T03:22:37;94954.78;;;8.47;79.15
13414;BME280;6778;48.136;11.386;2023-02-23T03:25:30;94953.81;;;8.41;79.42
13414;BME280;6778;48.136;11.386;2023-02-23T03:28:24;94951.00;;;8.43;79.25
13414;BME280;6778;48.136;11.386;2023-02-23T03:31:16;94947.38;;;8.44;78.88
13414;BME280;6778;48.136;11.386;2023-02-23T03:34:11;94947.03;;;8.34;79.78
13414;BME280;6778;48.136;11.386;2023-02-23T03:37:03;94950.06;;;8.24;80.07
13414;BME280;6778;48.136;11.386;2023-02-23T03:39:55;94949.88;;;8.26;80.17
13414;BME280;6778;48.136;11.386;2023-02-23T03:42:43;94943.50;;;8.21;80.36
13414;BME280;6778;48.136;11.386;2023-02-23T03:45:30;94951.09;;;8.23;80.36
13414;BME280;6778;48.136;11.386;2023-02-23T03:48:17;94946.72;;;8.17;80.43
13414;BME280;6778;48.136;11.386;2023-02-23T03:51:05;94955.34;;;8.17;80.36
13414;BME280;6778;48.136;11.386;2023-02-23T03:53:55;94958.09;;;8.29;80.33
13414;BME280;6778;48.136;11.386;2023-02-23T03:56:46;94962.50;;;8.29;80.14
13414;BME280;6778;48.136;11.386;2023-02-23T03:59:35;94964.34;;;8.21;80.42
13414;BME280;6778;48.136;11.386;2023-02-23T04:02:24;94957.72;;;8.19;80.52
13414;BME280;6778;48.136;11.386;2023-02-23T04:05:12;94963.16;;;8.17;80.00
13414;BME280;6778;48.136;11.386;2023-02-23T04:08:00;94972.44;;;8.13;80.00
13414;BME280;6778;48.136;11.386;2023-02-23T04:10:50;94966.09;;;7.96;81.02
13414;BME280;6778;48.136;11.386;2023-02-23T04:13:38;94963.88;;;8.00;80.94
13414;BME280;6778;48.136;11.386;2023-02-23T04:16:08;94967.50;;;7.92;81.57
13414;BME280;6778;48.136;11.386;2023-02-23T04:18:38;94970.13;;;7.92;81.59
13414;BME280;6778;48.136;11.386;2023-02-23T04:21:09;94973.75;;;7.91;81.56
13414;BME280;6778;48.136;11.386;2023-02-23T04:23:41;94968.75;;;7.89;81.87
13414;BME280;6778;48.136;11.386;2023-02-23T04:26:12;94971.34;;;7.89;81.89
13414;BME280;6778;48.136;11.386;2023-02-23T04:28:42;94968.53;;;7.91;81.68
13414;BME280;6778;48.136;11.386;2023-02-23T04:31:12;94957.50;;;7.89;81.69
13414;BME280;6778;48.136;11.386;2023-02-23T04:33:47;94959.31;;;7.88;81.78
13414;BME280;6778;48.136;11.386;2023-02-23T04:36:17;94964.34;;;7.83;81.98
13414;BME280;6778;48.136;11.386;2023-02-23T04:38:47;94962.97;;;7.81;81.92
13414;BME280;6778;48.136;11.386;2023-02-23T04:41:17;94963.56;;;7.83;82.02
13414;BME280;6778;48.136;11.386;2023-02-23T04:43:49;94961.38;;;7.80;81.69
13414;BME280;6778;48.136;11.386;2023-02-23T04:46:19;94959.78;;;7.72;82.23
13414;BME280;6778;48.136;11.386;2023-02-23T04:48:52;94964.19;;;7.72;82.26
13414;BME280;6778;48.136;11.386;2023-02-23T04:51:22;94958.00;;;7.73;82.05
13414;BME280;6778;48.136;11.386;2023-02-23T04:53:56;94958.81;;;7.66;82.54
13414;BME280;6778;48.136;11.386;2023-02-23T04:56:27;94961.66;;;7.58;82.69
13414;BME280;6778;48.136;11.386;2023-02-23T04:58:57;94970.06;;;7.60;82.97
13414;BME280;6778;48.136;11.386;2023-02-23T05:01:27;94972.88;;;7.65;82.66
13414;BME280;6778;48.136;11.386;2023-02-23T05:04:01;94966.44;;;7.68;82.58
13414;BME280;6778;48.136;11.386;2023-02-23T05:06:31;94974.47;;;7.66;82.48
13414;BME280;6778;48.136;11.386;2023-02-23T05:09:02;94968.06;;;7.62;82.61
13414;BME280;6778;48.136;11.386;2023-02-23T05:11:33;94966.22;;;7.70;82.48
13414;BME280;6778;48.136;11.386;2023-02-23T05:14:04;94974.22;;;7.75;82.41
13414;BME280;6778;48.136;11.386;2023-02-23T05:16:35;94968.63;;;7.71;82.37
13414;BME280;6778;48.136;11.386;2023-02-23T05:19:07;94971.84;;;7.66;82.85
13414;BME280;6778;48.136;11.386;2023-02-23T05:21:38;94973.66;;;7.66;82.86
13414;BME280;6778;48.136;11.386;2023-02-23T05:24:08;94966.66;;;7.66;82.78
13414;BME280;6778;48.136;11.386;2023-02-23T05:26:39;94967.38;;;7.80;82.21
13414;BME280;6778;48.136;11.386;2023-02-23T05:29:09;94968.75;;;7.89;81.55
13414;BME280;6778;48.136;11.386;2023-02-23T05:31:40;94971.75;;;7.93;81.56
13414;BME280;6778;48.136;11.386;2023-02-23T05:34:12;94979.88;;;7.58;82.88
13414;BME280;6778;48.136;11.386;2023-02-23T05:36:42;94981.81;;;7.25;83.94
13414;BME280;6778;48.136;11.386;2023-02-23T05:39:12;94979.66;;;6.89;84.68
13414;BME280;6778;48.136;11.386;2023-02-23T05:41:43;94982.66;;;6.59;86.99
13414;BME280;6778;48.136;11.386;2023-02-23T05:44:13;94982.88;;;6.57;88.00
13414;BME280;6778;48.136;11.386;2023-02-23T05:46:44;94978.66;;;6.76;87.22
13414;BME280;6778;48.136;11.386;2023-02-23T05:49:17;94977.84;;;6.96;86.79
13414;BME280;6778;48.136;11.386;2023-02-23T05:51:47;94975.00;;;7.17;85.47
13414;BME280;6778;48.136;11.386;2023-02-23T05:54:17;94980.63;;;7.01;86.58
13414;BME280;6778;48.136;11.386;2023-02-23T05:56:48;94979.44;;;6.97;86.96
13414;BME280;6778;48.136;11.386;2023-02-23T05:59:18;94992.28;;;6.85;87.83
13414;BME280;6778;48.136;11.386;2023-02-23T06:01:49;94986.41;;;7.23;86.09
13414;BME280;6778;48.136;11.386;2023-02-23T06:04:21;94988.59;;;7.39;84.81
13414;BME280;6778;48.136;11.386;2023-02-23T06:06:51;94988.97;;;7.43;84.74
13414;BME280;6778;48.136;11.386;2023-02-23T06:09:21;94994.75;;;7.51;84.25
13414;BME280;6778;48.136;11.386;2023-02-23T06:11:51;94992.75;;;7.53;84.46
13414;BME280;6778;48.136;11.386;2023-02-23T06:14:21;94989.94;;;7.55;84.64
13414;BME280;6778;48.136;11.386;2023-02-23T06:16:51;94995.16;;;7.55;84.75
13414;BME280;6778;48.136;11.386;2023-02-23T06:19:24;94993.53;;;7.60;84.82
13414;BME280;6778;48.136;11.386;2023-02-23T06:21:54;94998.75;;;7.60;84.64
13414;BME280;6778;48.136;11.386;2023-02-23T06:24:24;94998.31;;;7.63;84.40
13414;BME280;6778;48.136;11.386;2023-02-23T06:26:54;95013.75;;;7.65;84.32
13414;BME280;6778;48.136;11.386;2023-02-23T06:29:25;95005.34;;;7.63;84.61
13414;BME280;6778;48.136;11.386;2023-02-23T06:31:55;95007.94;;;7.70;84.36
13414;BME280;6778;48.136;11.386;2023-02-23T06:34:29;95008.94;;;7.69;84.40
13414;BME280;6778;48.136;11.386;2023-02-23T06:37:00;95013.91;;;7.77;84.02
13414;BME280;6778;48.136;11.386;2023-02-23T06:39:33;95020.13;;;7.82;83.90
13414;BME280;6778;48.136;11.386;2023-02-23T06:42:02;95020.34;;;7.81;84.30
13414;BME280;6778;48.136;11.386;2023-02-23T06:44:32;95020.91;;;7.83;84.22
13414;BME280;6778;48.136;11.386;2023-02-23T06:47:04;95024.53;;;7.82;84.19
13414;BME280;6778;48.136;11.386;2023-02-23T06:49:37;95024.31;;;7.83;84.22
13414;BME280;6778;48.136;11.386;2023-02-23T06:52:07;95027.34;;;7.87;84.10
13414;BME280;6778;48.136;11.386;2023-02-23T06:54:39;95024.91;;;7.85;84.49
13414;BME280;6778;48.136;11.386;2023-02-23T06:57:10;95016.91;;;7.87;84.52
13414;BME280;6778;48.136;11.386;2023-02-23T06:59:41;95026.09;;;7.89;84.45
13414;BME280;6778;48.136;11.386;2023-02-23T07:02:11;95028.91;;;7.94;84.38
13414;BME280;6778;48.136;11.386;2023-02-23T07:04:44;95032.69;;;7.99;84.18
13414;BME280;6778;48.136;11.386;2023-02-23T07:07:14;95032.88;;;7.97;84.35
13414;BME280;6778;48.136;11.386;2023-02-23T07:09:44;95032.50;;;8.00;84.17
13414;BME280;6778;48.136;11.386;2023-02-23T07:12:14;95037.47;;;8.08;83.85
13414;BME280;6778;48.136;11.386;2023-02-23T07:14:44;95032.84;;;8.10;84.32
13414;BME280;6778;48.136;11.386;2023-02-23T07:17:14;95041.25;;;8.12;84.45
13414;BME280;6778;48.136;11.386;2023-02-23T07:19:47;95040.63;;;8.17;84.38
13414;BME280;6778;48.136;11.386;2023-02-23T07:22:16;95035.97;;;8.26;84.19
13414;BME280;6778;48.136;11.386;2023-02-23T07:24:48;95042.97;;;8.32;84.03
13414;BME280;6778;48.136;11.386;2023-02-23T07:27:18;95038.94;;;8.42;83.84
13414;BME280;6778;48.136;11.386;2023-02-23T07:29:48;95041.72;;;8.47;83.17
13414;BME280;6778;48.136;11.386;2023-02-23T07:32:17;95039.06;;;8.54;83.25
13414;BME280;6778;48.136;11.386;2023-02-23T07:34:50;95038.63;;;8.57;83.35
13414;BME280;6778;48.136;11.386;2023-02-23T07:37:20;95033.81;;;8.61;82.90
13414;BME280;6778;48.136;11.386;2023-02-23T07:39:50;95033.81;;;8.61;83.09
13414;BME280;6778;48.136;11.386;2023-02-23T07:42:20;95036.38;;;8.67;83.14
13414;BME280;6778;48.136;11.386;2023-02-23T07:44:52;95036.47;;;8.79;82.98
13414;BME280;6778;48.136;11.386;2023-02-23T07:47:22;95037.22;;;8.86;82.91
13414;BME280;6778;48.136;11.386;2023-02-23T07:50:00;95041.38;;;8.94;82.76
13414;BME280;6778;48.136;11.386;2023-02-23T07:52:34;95038.66;;;9.07;82.67
13414;BME280;6778;48.136;11.386;2023-02-23T07:55:06;95036.38;;;9.17;82.32
13414;BME280;6778;48.136;11.386;2023-02-23T07:57:37;95039.28;;;9.27;81.89
13414;BME280;6778;48.136;11.386;2023-02-23T08:00:08;95035.63;;;9.35;82.00
13414;BME280;6778;48.136;11.386;2023-02-23T08:02:38;95041.00;;;9.40;81.53
13414;BME280;6778;48.136;11.386;2023-02-23T08:05:11;95038.31;;;9.47;81.43
13414;BME280;6778;48.136;11.386;2023-02-23T08:07:41;95034.25;;;9.51;81.31
13414;BME280;6778;48.136;11.386;2023-02-23T08:10:11;95039.66;;;9.56;81.14
13414;BME280;6778;48.136;11.386;2023-02-23T08:12:42;95039.13;;;9.66;80.81
13414;BME280;6778;48.136;11.386;2023-02-23T08:15:12;95044.53;;;9.71;80.74
13414;BME280;6778;48.136;11.386;2023-02-23T08:17:42;95050.75;;;9.88;80.01
13414;BME280;6778;48.136;11.386;2023-02-23T08:20:14;95046.81;;;10.16;78.48
13414;BME280;6778;48.136;11.386;2023-02-23T08:22:44;95051.03;;;10.17;78.34
13414;BME280;6778;48.136;11.386;2023-02-23T08:25:16;95043.97;;;10.35;78.51
13414;BME280;6778;48.136;11.386;2023-02-23T08:27:47;95045.00;;;10.64;76.04
13414;BME280;6778;48.136;11.386;2023-02-23T08:30:19;95054.84;;;10.81;76.00
13414;BME280;6778;48.136;11.386;2023-02-23T08:32:49;95045.94;;;10.82;75.50
13414;BME280;6778;48.136;11.386;2023-02-23T08:35:22;95045.09;;;11.00;74.82
13414;BME280;6778;48.136;11.386;2023-02-23T08:37:52;95048.41;;;11.07;75.26
13414;BME280;6778;48.136;11.386;2023-02-23T08:40:23;95049.75;;;11.09;74.26
13414;BME280;6778;48.136;11.386;2023-02-23T08:42:53;95046.94;;;11.23;74.57
13414;BME280;6778;48.136;11.386;2023-02-23T08:45:23;95044.53;;;11.21;73.87
13414;BME280;6778;48.136;11.386;2023-02-23T08:47:55;95042.03;;;11.14;74.77
13414;BME280;6778;48.136;11.386;2023-02-23T08:50:28;95052.38;;;11.09;74.03
13414;BME280;6778;48.136;11.386;2023-02-23T08:52:58;95045.81;;;11.18;74.32
13414;BME280;6778;48.136;11.386;2023-02-23T08:55:28;95044.91;;;11.60;72.98
13414;BME280;6778;48.136;11.386;2023-02-23T08:57:58;95039.06;;;11.58;72.56
13414;BME280;6778;48.136;11.386;2023-02-23T09:00:28;95047.50;;;11.83;71.68
13414;BME280;6778;48.136;11.386;2023-02-23T09:02:58;95048.91;;;11.86;71.32
13414;BME280;6778;48.136;11.386;2023-02-23T09:05:31;95047.13;;;12.03;71.27
13414;BME280;6778;48.136;11.386;2023-02-23T09:08:02;95047.91;;;12.15;70.04
13414;BME280;6778;48.136;11.386;2023-02-23T09:10:33;95043.56;;;12.21;69.91
13414;BME280;6778;48.136;11.386;2023-02-23T09:13:03;95045.78;;;12.41;69.47
13414;BME280;6778;48.136;11.386;2023-02-23T09:15:33;95042.28;;;12.80;68.01
13414;BME280;6778;48.136;11.386;2023-02-23T09:18:03;95044.47;;;12.72;68.10
13414;BME280;6778;48.136;11.386;2023-02-23T09:20:36;95041.75;;;12.95;67.82
13414;BME280;6778;48.136;11.386;2023-02-23T09:23:06;95052.91;;;13.02;67.38
13414;BME280;6778;48.136;11.386;2023-02-23T09:25:40;95048.09;;;12.82;67.90
13414;BME280;6778;48.136;11.386;2023-02-23T09:28:13;95043.56;;;12.95;67.93
13414;BME280;6778;48.136;11.386;2023-02-23T09:30:44;95047.81;;;12.96;67.92
13414;BME280;6778;48.136;11.386;2023-02-23T09:33:15;95045.81;;;13.03;67.49
13414;BME280;6778;48.136;11.386;2023-02-23T09:35:48;95045.41;;;13.11;67.36
13414;BME280;6778;48.136;11.386;2023-02-23T09:38:18;95049.09;;;13.10;67.24
13414;BME280;6778;48.136;11.386;2023-02-23T09:40:50;95046.69;;;13.08;67.46
13414;BME280;6778;48.136;11.386;2023-02-23T09:43:29;95055.28;;;13.04;67.56
13414;BME280;6778;48.136;11.386;2023-02-23T09:46:10;95049.78;;;12.89;68.05
13414;BME280;6778;48.136;11.386;2023-02-23T09:48:43;95051.56;;;12.71;68.29
13414;BME280;6778;48.136;11.386;2023-02-23T09:51:19;95056.13;;;12.76;68.38
13414;BME280;6778;48.136;11.386;2023-02-23T09:53:53;95050.72;;;12.82;68.41
13414;BME280;6778;48.136;11.386;2023-02-23T09:56:30;95059.50;;;12.88;68.08
13414;BME280;6778;48.136;11.386;2023-02-23T09:59:03;95065.25;;;13.02;67.38
13414;BME280;6778;48.136;11.386;2023-02-23T10:01:59;95067.09;;;13.18;66.85
13414;BME280;6778;48.136;11.386;2023-02-23T10:04:37;95059.75;;;13.03;66.63
13414;BME280;6778;48.136;11.386;2023-02-23T10:07:20;95066.44;;;13.11;66.75
13414;BME280;6778;48.136;11.386;2023-02-23T10:10:05;95062.63;;;13.19;66.49
13414;BME280;6778;48.136;11.386;2023-02-23T10:12:48;95068.09;;;13.00;66.81
13414;BME280;6778;48.136;11.386;2023-02-23T10:15:26;95067.69;;;12.92;67.06
13414;BME280;6778;48.136;11.386;2023-02-23T10:18:16;95073.00;;;12.80;67.54
13414;BME280;6778;48.136;11.386;2023-02-23T10:21:02;95067.28;;;12.83;68.01
13414;BME280;6778;48.136;11.386;2023-02-23T10:23:44;95068.13;;;12.72;67.96
13414;BME280;6778;48.136;11.386;2023-02-23T10:26:21;95068.91;;;12.55;68.43
13414;BME280;6778;48.136;11.386;2023-02-23T10:28:54;95064.34;;;12.51;69.14
13414;BME280;6778;48.136;11.386;2023-02-23T10:31:32;95063.44;;;12.45;69.28
13414;BME280;6778;48.136;11.386;2023-02-23T10:34:10;95067.06;;;12.56;68.98
13414;BME280;6778;48.136;11.386;2023-02-23T10:36:47;95062.97;;;12.60;69.11
13414;BME280;6778;48.136;11.386;2023-02-23T10:39:23;95062.88;;;12.72;68.55
13414;BME280;6778;48.136;11.386;2023-02-23T10:41:54;95060.63;;;12.64;68.92
13414;BME280;6778;48.136;11.386;2023-02-23T10:44:27;95060.19;;;12.67;68.69
13414;BME280;6778;48.136;11.386;2023-02-23T10:47:02;95062.56;;;12.68;68.89
13414;BME280;6778;48.136;11.386;2023-02-23T10:49:40;95055.53;;;12.57;68.98
13414;BME280;6778;48.136;11.386;2023-02-23T10:52:14;95056.53;;;12.68;69.50
13414;BME280;6778;48.136;11.386;2023-02-23T10:54:49;95058.91;;;12.69;68.96
13414;BME280;6778;48.136;11.386;2023-02-23T10:57:23;95063.69;;;12.72;68.70
13414;BME280;6778;48.136;11.386;2023-02-23T11:00:21;95063.22;;;12.75;68.44
13414;BME280;6778;48.136;11.386;2023-02-23T11:02:54;95055.84;;;12.89;68.32
13414;BME280;6778;48.136;11.386;2023-02-23T11:05:33;95060.53;;;12.87;68.44
13414;BME280;6778;48.136;11.386;2023-02-23T11:08:18;95059.34;;;12.95;68.05
13414;BME280;6778;48.136;11.386;2023-02-23T11:11:03;95067.31;;;13.00;68.32
13414;BME280;6778;48.136;11.386;2023-02-23T11:13:37;95058.31;;;12.96;67.79
13414;BME280;6778;48.136;11.386;2023-02-23T11:16:11;95054.25;;;13.05;68.14
13414;BME280;6778;48.136;11.386;2023-02-23T11:18:49;95054.09;;;13.11;67.93
13414;BME280;6778;48.136;11.386;2023-02-23T11:21:24;95047.09;;;13.17;67.85
13414;BME280;6778;48.136;11.386;2023-02-23T11:23:57;95052.31;;;13.00;68.79
13414;BME280;6778;48.136;11.386;2023-02-23T11:26:37;95052.88;;;12.85;69.41
13414;BME280;6778;48.136;11.386;2023-02-23T11:29:14;95042.19;;;12.75;69.56
13414;BME280;6778;48.136;11.386;2023-02-23T11:31:49;95041.00;;;12.83;69.02
13414;BME280;6778;48.136;11.386;2023-02-23T11:34:28;95036.94;;;12.92;68.56
13414;BME280;6778;48.136;11.386;2023-02-23T11:37:02;95032.22;;;13.23;67.81
13414;BME280;6778;48.136;11.386;2023-02-23T11:39:33;95036.03;;;13.32;67.52
13414;BME280;6778;48.136;11.386;2023-02-23T11:42:29;95027.88;;;13.33;66.55
13414;BME280;6778;48.136;11.386;2023-02-23T11:45:10;95024.56;;;13.38;67.22
13414;BME280;6778;48.136;11.386;2023-02-23T11:47:45;95026.06;;;13.34;67.30
13414;BME280;6778;48.136;11.386;2023-02-23T11:50:23;95023.50;;;13.39;66.25
13414;BME280;6778;48.136;11.386;2023-02-23T11:52:59;95010.59;;;13.37;66.64
13414;BME280;6778;48.136;11.386;2023-02-23T11:55:32;95013.09;;;13.66;65.98
13414;BME280;6778;48.136;11.386;2023-02-23T11:58:23;95013.00;;;13.78;65.12
13414;BME280;6778;48.136;11.386;2023-02-23T12:00:56;95004.06;;;13.79;65.21
13414;BME280;6778;48.136;11.386;2023-02-23T12:03:32;95006.69;;;13.79;65.35
13414;BME280;6778;48.136;11.386;2023-02-23T12:06:03;94995.44;;;13.83;65.43
13414;BME280;6778;48.136;11.386;2023-02-23T12:08:39;94999.59;;;13.79;65.51
13414;BME280;6778;48.136;11.386;2023-02-23T12:11:15;94996.22;;;13.84;64.98
13414;BME280;6778;48.136;11.386;2023-02-23T12:13:55;94993.41;;;13.69;65.62
13414;BME280;6778;48.136;11.386;2023-02-23T12:16:32;94994.19;;;13.69;65.65
13414;BME280;6778;48.136;11.386;2023-02-23T12:19:19;94988.75;;;13.76;65.77
13414;BME280;6778;48.136;11.386;2023-02-23T12:22:01;94989.38;;;13.83;65.42
13414;BME280;6778;48.136;11.386;2023-02-23T12:24:41;94994.56;;;13.78;65.83
13414;BME280;6778;48.136;11.386;2023-02-23T12:27:15;94987.53;;;13.83;65.39
13414;BME280;6778;48.136;11.386;2023-02-23T12:30:03;94976.81;;;13.90;65.36
13414;BME280;6778;48.136;11.386;2023-02-23T12:32:44;94981.34;;;13.94;65.09
13414;BME280;6778;48.136;11.386;2023-02-23T12:35:21;94978.59;;;13.84;65.92
13414;BME280;6778;48.136;11.386;2023-02-23T12:38:02;94984.03;;;13.78;66.02
13414;BME280;6778;48.136;11.386;2023-02-23T12:40:37;94988.63;;;13.65;65.82
13414;BME280;6778;48.136;11.386;2023-02-23T12:43:16;94983.69;;;13.52;66.30
13414;BME280;6778;48.136;11.386;2023-02-23T12:45:54;94988.97;;;13.52;66.11
13414;BME280;6778;48.136;11.386;2023-02-23T12:48:38;94982.69;;;13.36;66.55
13414;BME280;6778;48.136;11.386;2023-02-23T12:51:19;94978.78;;;13.39;66.70
13414;BME280;6778;48.136;11.386;2023-02-23T12:53:51;94977.56;;;13.47;66.40
13414;BME280;6778;48.136;11.386;2023-02-23T12:56:34;94979.41;;;13.46;66.22
13414;BME280;6778;48.136;11.386;2023-02-23T12:59:40;94975.69;;;13.42;65.10
13414;BME280;6778;48.136;11.386;2023-02-23T13:02:22;94969.22;;;13.50;64.60
13414;BME280;6778;48.136;11.386;2023-02-23T13:05:12;94965.28;;;13.52;63.50
13414;BME280;6778;48.136;11.386;2023-02-23T13:07:54;94964.41;;;13.47;63.52
13414;BME280;6778;48.136;11.386;2023-02-23T13:10:48;94962.28;;;13.44;63.32
13414;BME280;6778;48.136;11.386;2023-02-23T13:13:30;94965.03;;;13.54;63.05
13414;BME280;6778;48.136;11.386;2023-02-23T13:16:10;94962.81;;;13.46;63.02
13414;BME280;6778;48.136;11.386;2023-02-23T13:18:54;94959.66;;;13.44;62.89
13414;BME280;6778;48.136;11.386;2023-02-23T13:21:34;94966.94;;;13.58;63.35
13414;BME280;6778;48.136;11.386;2023-02-23T13:24:09;94966.94;;;13.58;63.59
13414;BME280;6778;48.136;11.386;2023-02-23T13:26:48;94968.69;;;13.70;62.88
13414;BME280;6778;48.136;11.386;2023-02-23T13:29:32;94963.16;;;13.71;62.51
13414;BME280;6778;48.136;11.386;2023-02-23T13:32:08;94961.22;;;13.83;62.45
13414;BME280;6778;48.136;11.386;2023-02-23T13:34:48;94957.41;;;13.96;62.17
13414;BME280;6778;48.136;11.386;2023-02-23T13:37:23;94959.28;;;14.01;62.34
13414;BME280;6778;48.136;11.386;2023-02-23T13:40:06;94957.16;;;13.98;61.97
13414;BME280;6778;48.136;11.386;2023-02-23T13:42:54;94953.25;;;13.56;62.53
13414;BME280;6778;48.136;11.386;2023-02-23T13:45:52;94956.28;;;13.92;62.08
13414;BME280;6778;48.136;11.386;2023-02-23T13:48:44;94956.13;;;13.77;62.32
13414;BME280;6778;48.136;11.386;2023-02-23T13:51:36;94948.34;;;13.87;62.34
13414;BME280;6778;48.136;11.386;2023-02-23T13:54:22;94948.28;;;13.82;62.33
13414;BME280;6778;48.136;11.386;2023-02-23T13:56:58;94944.84;;;13.81;62.87
13414;BME280;6778;48.136;11.386;2023-02-23T13:59:36;94947.28;;;13.44;63.02